sensor_id;sensor_type;location;lat;lon;timestamp;temperature;humidity
64718;DHT22;62506;46.070;14.492;2024-03-22T00:01:11;22.00;56.70
64718;DHT22;62506;46.070;14.492;2024-03-22T00:03:37;22.00;56.70
64718;DHT22;62506;46.070;14.492;2024-03-22T00:06:02;21.90;56.70
64718;DHT22;62506;46.070;14.492;2024-03-22T00:08:28;21.90;56.70
64718;DHT22;62506;46.070;14.492;2024-03-22T00:10:53;22.00;56.80
64718;DHT22;62506;46.070;14.492;2024-03-22T00:13:19;21.90;56.70
64718;DHT22;62506;46.070;14.492;2024-03-22T00:15:44;21.90;56.70
64718;DHT22;62506;46.070;14.492;2024-03-22T00:18:10;21.90;56.70
64718;DHT22;62506;46.070;14.492;2024-03-22T00:20:36;21.90;56.70
64718;DHT22;62506;46.070;14.492;2024-03-22T00:23:01;21.90;56.70
64718;DHT22;62506;46.070;14.492;2024-03-22T00:25:27;21.90;56.70
64718;DHT22;62506;46.070;14.492;2024-03-22T00:27:53;21.90;56.70
64718;DHT22;62506;46.070;14.492;2024-03-22T00:30:19;21.90;56.70
64718;DHT22;62506;46.070;14.492;2024-03-22T00:32:44;21.90;56.80
64718;DHT22;62506;46.070;14.492;2024-03-22T00:35:10;21.90;56.70
64718;DHT22;62506;46.070;14.492;2024-03-22T00:37:36;21.90;56.70
64718;DHT22;62506;46.070;14.492;2024-03-22T00:40:01;21.90;56.70
64718;DHT22;62506;46.070;14.492;2024-03-22T00:42:27;21.90;56.70
64718;DHT22;62506;46.070;14.492;2024-03-22T00:44:52;21.90;56.70
64718;DHT22;62506;46.070;14.492;2024-03-22T00:47:20;21.90;56.70
64718;DHT22;62506;46.070;14.492;2024-03-22T00:49:46;21.90;56.70
64718;DHT22;62506;46.070;14.492;2024-03-22T00:52:11;21.90;56.80
64718;DHT22;62506;46.070;14.492;2024-03-22T00:54:37;21.90;56.80
64718;DHT22;62506;46.070;14.492;2024-03-22T00:57:04;21.90;56.70
64718;DHT22;62506;46.070;14.492;2024-03-22T00:59:30;21.90;56.70
64718;DHT22;62506;46.070;14.492;2024-03-22T01:01:55;21.90;56.70
64718;DHT22;62506;46.070;14.492;2024-03-22T01:04:21;21.90;56.70
64718;DHT22;62506;46.070;14.492;2024-03-22T01:06:46;21.90;56.70
64718;DHT22;62506;46.070;14.492;2024-03-22T01:09:12;21.90;56.70
64718;DHT22;62506;46.070;14.492;2024-03-22T01:11:37;21.90;56.70
64718;DHT22;62506;46.070;14.492;2024-03-22T01:14:03;21.90;56.70
64718;DHT22;62506;46.070;14.492;2024-03-22T01:16:28;21.90;56.70
64718;DHT22;62506;46.070;14.492;2024-03-22T01:18:54;21.90;56.70
64718;DHT22;62506;46.070;14.492;2024-03-22T01:21:19;21.90;56.70
64718;DHT22;62506;46.070;14.492;2024-03-22T01:23:51;21.90;56.70
64718;DHT22;62506;46.070;14.492;2024-03-22T01:26:17;21.90;56.70
64718;DHT22;62506;46.070;14.492;2024-03-22T01:28:42;21.90;56.70
64718;DHT22;62506;46.070;14.492;2024-03-22T01:31:08;21.90;56.70
64718;DHT22;62506;46.070;14.492;2024-03-22T01:33:33;21.90;56.80
64718;DHT22;62506;46.070;14.492;2024-03-22T01:35:59;21.90;56.80
64718;DHT22;62506;46.070;14.492;2024-03-22T01:38:24;21.90;56.80
64718;DHT22;62506;46.070;14.492;2024-03-22T01:40:50;21.90;56.70
64718;DHT22;62506;46.070;14.492;2024-03-22T01:43:15;21.80;56.70
64718;DHT22;62506;46.070;14.492;2024-03-22T01:45:41;21.80;56.70
64718;DHT22;62506;46.070;14.492;2024-03-22T01:48:07;21.90;56.70
64718;DHT22;62506;46.070;14.492;2024-03-22T01:50:32;21.90;56.70
64718;DHT22;62506;46.070;14.492;2024-03-22T01:52:58;21.80;56.70
64718;DHT22;62506;46.070;14.492;2024-03-22T01:55:23;21.90;56.80
64718;DHT22;62506;46.070;14.492;2024-03-22T01:57:49;21.90;56.80
64718;DHT22;62506;46.070;14.492;2024-03-22T02:00:17;21.80;56.70
64718;DHT22;62506;46.070;14.492;2024-03-22T02:02:42;21.80;56.70
64718;DHT22;62506;46.070;14.492;2024-03-22T02:05:11;21.90;56.80
64718;DHT22;62506;46.070;14.492;2024-03-22T02:07:37;21.80;56.80
64718;DHT22;62506;46.070;14.492;2024-03-22T02:10:02;21.90;56.80
64718;DHT22;62506;46.070;14.492;2024-03-22T02:12:28;21.80;56.80
64718;DHT22;62506;46.070;14.492;2024-03-22T02:14:53;21.80;56.70
64718;DHT22;62506;46.070;14.492;2024-03-22T02:17:23;21.80;56.80
64718;DHT22;62506;46.070;14.492;2024-03-22T02:19:48;21.90;56.90
64718;DHT22;62506;46.070;14.492;2024-03-22T02:22:14;21.80;56.80
64718;DHT22;62506;46.070;14.492;2024-03-22T02:24:39;21.90;56.90
64718;DHT22;62506;46.070;14.492;2024-03-22T02:27:05;21.90;56.90
64718;DHT22;62506;46.070;14.492;2024-03-22T02:29:30;21.80;56.90
64718;DHT22;62506;46.070;14.492;2024-03-22T02:31:56;21.80;57.00
64718;DHT22;62506;46.070;14.492;2024-03-22T02:34:23;21.80;57.00
64718;DHT22;62506;46.070;14.492;2024-03-22T02:36:49;21.90;57.00
64718;DHT22;62506;46.070;14.492;2024-03-22T02:39:14;21.80;57.00
64718;DHT22;62506;46.070;14.492;2024-03-22T02:41:40;21.80;57.00
64718;DHT22;62506;46.070;14.492;2024-03-22T02:44:05;21.80;57.00
64718;DHT22;62506;46.070;14.492;2024-03-22T02:46:32;21.80;57.00
64718;DHT22;62506;46.070;14.492;2024-03-22T02:48:58;21.80;57.00
64718;DHT22;62506;46.070;14.492;2024-03-22T02:51:23;21.80;57.00
64718;DHT22;62506;46.070;14.492;2024-03-22T02:53:49;21.80;57.00
64718;DHT22;62506;46.070;14.492;2024-03-22T02:56:15;21.80;57.00
64718;DHT22;62506;46.070;14.492;2024-03-22T02:58:40;21.80;57.00
64718;DHT22;62506;46.070;14.492;2024-03-22T03:01:06;21.80;57.00
64718;DHT22;62506;46.070;14.492;2024-03-22T03:03:31;21.80;57.00
64718;DHT22;62506;46.070;14.492;2024-03-22T03:05:57;21.80;57.00
64718;DHT22;62506;46.070;14.492;2024-03-22T03:08:22;21.80;57.00
64718;DHT22;62506;46.070;14.492;2024-03-22T03:10:48;21.80;57.00
64718;DHT22;62506;46.070;14.492;2024-03-22T03:13:13;21.80;56.90
64718;DHT22;62506;46.070;14.492;2024-03-22T03:15:39;21.80;57.50
64718;DHT22;62506;46.070;14.492;2024-03-22T03:18:04;21.80;56.90
64718;DHT22;62506;46.070;14.492;2024-03-22T03:20:30;21.80;56.90
64718;DHT22;62506;46.070;14.492;2024-03-22T03:22:55;21.80;57.60
64718;DHT22;62506;46.070;14.492;2024-03-22T03:25:25;21.80;56.90
64718;DHT22;62506;46.070;14.492;2024-03-22T03:27:50;21.80;56.90
64718;DHT22;62506;46.070;14.492;2024-03-22T03:30:16;21.80;56.90
64718;DHT22;62506;46.070;14.492;2024-03-22T03:32:41;21.80;56.90
64718;DHT22;62506;46.070;14.492;2024-03-22T03:35:07;21.80;56.80
64718;DHT22;62506;46.070;14.492;2024-03-22T03:37:32;21.80;56.90
64718;DHT22;62506;46.070;14.492;2024-03-22T03:39:58;21.80;56.80
64718;DHT22;62506;46.070;14.492;2024-03-22T03:42:23;21.80;56.80
64718;DHT22;62506;46.070;14.492;2024-03-22T03:44:49;21.80;56.80
64718;DHT22;62506;46.070;14.492;2024-03-22T03:47:14;21.80;56.80
64718;DHT22;62506;46.070;14.492;2024-03-22T03:49:40;21.80;56.90
64718;DHT22;62506;46.070;14.492;2024-03-22T03:52:06;21.80;57.00
64718;DHT22;62506;46.070;14.492;2024-03-22T03:54:31;21.80;58.70
64718;DHT22;62506;46.070;14.492;2024-03-22T03:56:57;21.80;59.10
64718;DHT22;62506;46.070;14.492;2024-03-22T03:59:22;21.80;59.00
64718;DHT22;62506;46.070;14.492;2024-03-22T04:01:48;21.90;58.90
64718;DHT22;62506;46.070;14.492;2024-03-22T04:04:13;21.80;58.60
64718;DHT22;62506;46.070;14.492;2024-03-22T04:06:39;21.90;58.70
64718;DHT22;62506;46.070;14.492;2024-03-22T04:09:04;21.90;58.80
64718;DHT22;62506;46.070;14.492;2024-03-22T04:11:30;21.90;58.60
64718;DHT22;62506;46.070;14.492;2024-03-22T04:13:56;21.80;58.40
64718;DHT22;62506;46.070;14.492;2024-03-22T04:16:21;21.90;58.50
64718;DHT22;62506;46.070;14.492;2024-03-22T04:18:46;21.80;58.50
64718;DHT22;62506;46.070;14.492;2024-03-22T04:21:12;21.80;58.40
64718;DHT22;62506;46.070;14.492;2024-03-22T04:23:37;21.80;58.40
64718;DHT22;62506;46.070;14.492;2024-03-22T04:26:03;21.80;58.40
64718;DHT22;62506;46.070;14.492;2024-03-22T04:28:29;21.80;58.40
64718;DHT22;62506;46.070;14.492;2024-03-22T04:30:59;21.80;58.30
64718;DHT22;62506;46.070;14.492;2024-03-22T04:33:25;21.80;58.30
64718;DHT22;62506;46.070;14.492;2024-03-22T04:35:51;21.80;58.40
64718;DHT22;62506;46.070;14.492;2024-03-22T04:38:16;21.80;58.40
64718;DHT22;62506;46.070;14.492;2024-03-22T04:40:42;21.80;58.30
64718;DHT22;62506;46.070;14.492;2024-03-22T04:43:08;21.80;58.30
64718;DHT22;62506;46.070;14.492;2024-03-22T04:45:33;21.80;58.20
64718;DHT22;62506;46.070;14.492;2024-03-22T04:48:00;21.80;58.20
64718;DHT22;62506;46.070;14.492;2024-03-22T04:50:29;21.80;58.10
64718;DHT22;62506;46.070;14.492;2024-03-22T04:52:54;21.80;58.10
64718;DHT22;62506;46.070;14.492;2024-03-22T04:55:20;21.80;58.00
64718;DHT22;62506;46.070;14.492;2024-03-22T04:57:45;21.80;58.00
64718;DHT22;62506;46.070;14.492;2024-03-22T05:00:11;21.80;58.00
64718;DHT22;62506;46.070;14.492;2024-03-22T05:02:37;21.90;57.90
64718;DHT22;62506;46.070;14.492;2024-03-22T05:05:02;21.90;57.80
64718;DHT22;62506;46.070;14.492;2024-03-22T05:07:28;21.90;57.70
64718;DHT22;62506;46.070;14.492;2024-03-22T05:09:53;21.90;57.60
64718;DHT22;62506;46.070;14.492;2024-03-22T05:12:19;21.90;57.60
64718;DHT22;62506;46.070;14.492;2024-03-22T05:14:44;22.00;57.40
64718;DHT22;62506;46.070;14.492;2024-03-22T05:17:10;22.00;57.00
64718;DHT22;62506;46.070;14.492;2024-03-22T05:19:35;22.20;56.70
64718;DHT22;62506;46.070;14.492;2024-03-22T05:22:01;22.30;56.40
64718;DHT22;62506;46.070;14.492;2024-03-22T05:24:26;22.30;56.20
64718;DHT22;62506;46.070;14.492;2024-03-22T05:26:52;22.40;56.00
64718;DHT22;62506;46.070;14.492;2024-03-22T05:29:18;22.50;55.90
64718;DHT22;62506;46.070;14.492;2024-03-22T05:31:47;22.50;55.70
64718;DHT22;62506;46.070;14.492;2024-03-22T05:34:19;22.60;56.20
64718;DHT22;62506;46.070;14.492;2024-03-22T05:36:48;22.60;55.50
64718;DHT22;62506;46.070;14.492;2024-03-22T05:39:14;22.60;55.40
64718;DHT22;62506;46.070;14.492;2024-03-22T05:41:40;22.60;55.40
64718;DHT22;62506;46.070;14.492;2024-03-22T05:44:05;22.60;55.60
64718;DHT22;62506;46.070;14.492;2024-03-22T05:46:31;22.60;55.60
64718;DHT22;62506;46.070;14.492;2024-03-22T05:48:57;22.50;55.70
64718;DHT22;62506;46.070;14.492;2024-03-22T05:51:24;22.50;55.70
64718;DHT22;62506;46.070;14.492;2024-03-22T05:53:49;22.40;55.90
64718;DHT22;62506;46.070;14.492;2024-03-22T05:56:15;22.20;55.50
64718;DHT22;62506;46.070;14.492;2024-03-22T05:58:41;22.30;56.20
64718;DHT22;62506;46.070;14.492;2024-03-22T06:01:06;22.30;56.20
64718;DHT22;62506;46.070;14.492;2024-03-22T06:03:32;22.40;56.10
64718;DHT22;62506;46.070;14.492;2024-03-22T06:05:58;22.40;56.40
64718;DHT22;62506;46.070;14.492;2024-03-22T06:08:25;22.50;56.40
64718;DHT22;62506;46.070;14.492;2024-03-22T06:10:52;22.40;56.50
64718;DHT22;62506;46.070;14.492;2024-03-22T06:13:17;22.40;56.50
64718;DHT22;62506;46.070;14.492;2024-03-22T06:15:43;22.30;56.60
64718;DHT22;62506;46.070;14.492;2024-03-22T06:18:11;22.30;56.70
64718;DHT22;62506;46.070;14.492;2024-03-22T06:20:36;22.30;56.70
64718;DHT22;62506;46.070;14.492;2024-03-22T06:23:02;22.20;56.70
64718;DHT22;62506;46.070;14.492;2024-03-22T06:25:27;22.20;56.70
64718;DHT22;62506;46.070;14.492;2024-03-22T06:27:53;22.20;56.70
64718;DHT22;62506;46.070;14.492;2024-03-22T06:30:18;22.20;56.70
64718;DHT22;62506;46.070;14.492;2024-03-22T06:32:44;20.70;49.90
64718;DHT22;62506;46.070;14.492;2024-03-22T06:35:09;20.50;55.30
64718;DHT22;62506;46.070;14.492;2024-03-22T06:37:37;21.00;57.20
64718;DHT22;62506;46.070;14.492;2024-03-22T06:40:03;21.40;56.70
64718;DHT22;62506;46.070;14.492;2024-03-22T06:42:28;21.60;56.00
64718;DHT22;62506;46.070;14.492;2024-03-22T06:44:54;21.70;56.40
64718;DHT22;62506;46.070;14.492;2024-03-22T06:47:19;21.80;56.20
64718;DHT22;62506;46.070;14.492;2024-03-22T06:49:46;21.80;56.00
64718;DHT22;62506;46.070;14.492;2024-03-22T06:52:11;21.80;56.50
64718;DHT22;62506;46.070;14.492;2024-03-22T06:54:37;21.80;55.60
64718;DHT22;62506;46.070;14.492;2024-03-22T06:57:02;21.90;55.80
64718;DHT22;62506;46.070;14.492;2024-03-22T06:59:28;21.90;55.80
64718;DHT22;62506;46.070;14.492;2024-03-22T07:01:53;21.90;55.70
64718;DHT22;62506;46.070;14.492;2024-03-22T07:04:19;21.90;55.80
64718;DHT22;62506;46.070;14.492;2024-03-22T07:06:44;21.90;55.90
64718;DHT22;62506;46.070;14.492;2024-03-22T07:09:10;21.90;56.40
64718;DHT22;62506;46.070;14.492;2024-03-22T07:11:35;21.90;56.40
64718;DHT22;62506;46.070;14.492;2024-03-22T07:14:01;21.90;56.40
64718;DHT22;62506;46.070;14.492;2024-03-22T07:16:27;21.90;56.40
64718;DHT22;62506;46.070;14.492;2024-03-22T07:18:52;21.90;56.40
64718;DHT22;62506;46.070;14.492;2024-03-22T07:21:18;21.90;56.50
64718;DHT22;62506;46.070;14.492;2024-03-22T07:23:43;21.80;56.00
64718;DHT22;62506;46.070;14.492;2024-03-22T07:26:09;21.80;57.30
64718;DHT22;62506;46.070;14.492;2024-03-22T07:28:35;21.80;56.70
64718;DHT22;62506;46.070;14.492;2024-03-22T07:31:00;21.80;56.60
64718;DHT22;62506;46.070;14.492;2024-03-22T07:33:26;21.90;56.80
64718;DHT22;62506;46.070;14.492;2024-03-22T07:35:51;21.90;56.70
64718;DHT22;62506;46.070;14.492;2024-03-22T07:38:19;21.90;56.70
64718;DHT22;62506;46.070;14.492;2024-03-22T07:40:45;21.90;56.70
64718;DHT22;62506;46.070;14.492;2024-03-22T07:43:10;21.90;56.70
64718;DHT22;62506;46.070;14.492;2024-03-22T07:45:36;21.90;56.70
64718;DHT22;62506;46.070;14.492;2024-03-22T07:48:01;21.90;56.70
64718;DHT22;62506;46.070;14.492;2024-03-22T07:50:27;21.90;56.70
64718;DHT22;62506;46.070;14.492;2024-03-22T07:52:52;21.90;56.70
64718;DHT22;62506;46.070;14.492;2024-03-22T07:55:18;21.90;56.80
64718;DHT22;62506;46.070;14.492;2024-03-22T07:57:43;21.90;56.80
64718;DHT22;62506;46.070;14.492;2024-03-22T08:00:09;21.90;56.80
64718;DHT22;62506;46.070;14.492;2024-03-22T08:02:35;21.90;56.80
64718;DHT22;62506;46.070;14.492;2024-03-22T08:05:01;21.80;56.20
64718;DHT22;62506;46.070;14.492;2024-03-22T08:07:27;21.90;56.90
64718;DHT22;62506;46.070;14.492;2024-03-22T08:09:52;21.90;57.80
64718;DHT22;62506;46.070;14.492;2024-03-22T08:12:18;21.90;57.00
64718;DHT22;62506;46.070;14.492;2024-03-22T08:14:44;21.90;57.10
64718;DHT22;62506;46.070;14.492;2024-03-22T08:17:10;22.00;57.10
64718;DHT22;62506;46.070;14.492;2024-03-22T08:19:36;21.90;57.00
64718;DHT22;62506;46.070;14.492;2024-03-22T08:22:03;21.90;57.10
64718;DHT22;62506;46.070;14.492;2024-03-22T08:24:29;21.90;57.10
64718;DHT22;62506;46.070;14.492;2024-03-22T08:26:54;22.00;57.20
64718;DHT22;62506;46.070;14.492;2024-03-22T08:29:21;22.00;57.20
64718;DHT22;62506;46.070;14.492;2024-03-22T08:31:46;22.00;57.30
64718;DHT22;62506;46.070;14.492;2024-03-22T08:34:12;22.00;57.30
64718;DHT22;62506;46.070;14.492;2024-03-22T08:36:37;22.00;57.30
64718;DHT22;62506;46.070;14.492;2024-03-22T08:39:03;22.00;57.30
64718;DHT22;62506;46.070;14.492;2024-03-22T08:41:30;22.00;57.30
64718;DHT22;62506;46.070;14.492;2024-03-22T08:43:55;22.00;57.30
64718;DHT22;62506;46.070;14.492;2024-03-22T08:46:22;22.00;57.30
64718;DHT22;62506;46.070;14.492;2024-03-22T08:48:50;22.00;57.30
64718;DHT22;62506;46.070;14.492;2024-03-22T08:51:15;22.00;57.30
64718;DHT22;62506;46.070;14.492;2024-03-22T08:53:41;22.00;57.20
64718;DHT22;62506;46.070;14.492;2024-03-22T08:56:06;22.00;57.10
64718;DHT22;62506;46.070;14.492;2024-03-22T08:58:33;22.00;57.10
64718;DHT22;62506;46.070;14.492;2024-03-22T09:00:58;22.00;57.10
64718;DHT22;62506;46.070;14.492;2024-03-22T09:03:23;22.00;57.10
64718;DHT22;62506;46.070;14.492;2024-03-22T09:05:52;22.00;57.00
64718;DHT22;62506;46.070;14.492;2024-03-22T09:08:17;22.00;57.00
64718;DHT22;62506;46.070;14.492;2024-03-22T09:10:43;22.00;57.00
64718;DHT22;62506;46.070;14.492;2024-03-22T09:13:08;22.00;57.00
64718;DHT22;62506;46.070;14.492;2024-03-22T09:15:37;22.00;57.00
64718;DHT22;62506;46.070;14.492;2024-03-22T09:18:03;22.00;56.90
64718;DHT22;62506;46.070;14.492;2024-03-22T09:20:29;22.00;56.80
64718;DHT22;62506;46.070;14.492;2024-03-22T09:22:54;22.00;56.90
64718;DHT22;62506;46.070;14.492;2024-03-22T09:25:20;22.10;56.90
64718;DHT22;62506;46.070;14.492;2024-03-22T09:27:45;22.10;57.00
64718;DHT22;62506;46.070;14.492;2024-03-22T09:30:11;21.80;53.20
64718;DHT22;62506;46.070;14.492;2024-03-22T09:32:37;21.30;55.00
64718;DHT22;62506;46.070;14.492;2024-03-22T09:35:02;21.60;56.60
64718;DHT22;62506;46.070;14.492;2024-03-22T09:37:28;21.80;56.60
64718;DHT22;62506;46.070;14.492;2024-03-22T09:39:53;21.90;56.30
64718;DHT22;62506;46.070;14.492;2024-03-22T09:42:19;22.00;56.80
64718;DHT22;62506;46.070;14.492;2024-03-22T09:44:50;22.10;55.90
64718;DHT22;62506;46.070;14.492;2024-03-22T09:47:17;22.10;55.90
64718;DHT22;62506;46.070;14.492;2024-03-22T09:49:43;22.10;55.80
64718;DHT22;62506;46.070;14.492;2024-03-22T09:52:12;22.20;55.70
64718;DHT22;62506;46.070;14.492;2024-03-22T09:54:38;22.10;55.50
64718;DHT22;62506;46.070;14.492;2024-03-22T09:57:04;22.10;55.30
64718;DHT22;62506;46.070;14.492;2024-03-22T09:59:29;22.10;55.60
64718;DHT22;62506;46.070;14.492;2024-03-22T10:01:55;22.10;55.70
64718;DHT22;62506;46.070;14.492;2024-03-22T10:04:21;22.10;55.70
64718;DHT22;62506;46.070;14.492;2024-03-22T10:06:47;22.20;55.70
64718;DHT22;62506;46.070;14.492;2024-03-22T10:09:13;22.20;55.70
64718;DHT22;62506;46.070;14.492;2024-03-22T10:11:38;22.20;55.70
64718;DHT22;62506;46.070;14.492;2024-03-22T10:14:04;22.20;55.70
64718;DHT22;62506;46.070;14.492;2024-03-22T10:16:36;22.20;55.70
64718;DHT22;62506;46.070;14.492;2024-03-22T10:19:02;22.20;55.00
64718;DHT22;62506;46.070;14.492;2024-03-22T10:21:27;22.20;55.70
64718;DHT22;62506;46.070;14.492;2024-03-22T10:23:54;22.20;55.90
64718;DHT22;62506;46.070;14.492;2024-03-22T10:26:19;22.20;55.90
64718;DHT22;62506;46.070;14.492;2024-03-22T10:28:45;22.20;55.90
64718;DHT22;62506;46.070;14.492;2024-03-22T10:31:14;22.20;55.90
64718;DHT22;62506;46.070;14.492;2024-03-22T10:33:40;22.20;55.90
64718;DHT22;62506;46.070;14.492;2024-03-22T10:36:06;22.20;55.90
64718;DHT22;62506;46.070;14.492;2024-03-22T10:38:32;22.20;55.90
64718;DHT22;62506;46.070;14.492;2024-03-22T10:40:58;22.20;55.90
64718;DHT22;62506;46.070;14.492;2024-03-22T10:43:25;22.20;55.90
64718;DHT22;62506;46.070;14.492;2024-03-22T10:45:50;22.20;55.90
64718;DHT22;62506;46.070;14.492;2024-03-22T10:48:17;22.20;56.00
64718;DHT22;62506;46.070;14.492;2024-03-22T10:50:43;22.20;56.00
64718;DHT22;62506;46.070;14.492;2024-03-22T10:53:09;22.20;56.70
64718;DHT22;62506;46.070;14.492;2024-03-22T10:55:36;22.20;56.00
64718;DHT22;62506;46.070;14.492;2024-03-22T10:58:03;22.20;56.00
64718;DHT22;62506;46.070;14.492;2024-03-22T11:00:29;22.20;56.00
64718;DHT22;62506;46.070;14.492;2024-03-22T11:02:55;22.20;56.00
64718;DHT22;62506;46.070;14.492;2024-03-22T11:05:21;22.20;56.10
64718;DHT22;62506;46.070;14.492;2024-03-22T11:07:47;22.20;56.10
64718;DHT22;62506;46.070;14.492;2024-03-22T11:10:13;22.20;56.00
64718;DHT22;62506;46.070;14.492;2024-03-22T11:12:39;22.20;56.70
64718;DHT22;62506;46.070;14.492;2024-03-22T11:15:05;22.20;56.00
64718;DHT22;62506;46.070;14.492;2024-03-22T11:17:30;22.20;56.10
64718;DHT22;62506;46.070;14.492;2024-03-22T11:19:56;22.20;56.10
64718;DHT22;62506;46.070;14.492;2024-03-22T11:22:21;22.20;56.00
64718;DHT22;62506;46.070;14.492;2024-03-22T11:24:47;22.20;56.10
64718;DHT22;62506;46.070;14.492;2024-03-22T11:27:12;22.20;56.00
64718;DHT22;62506;46.070;14.492;2024-03-22T11:29:39;22.20;56.00
64718;DHT22;62506;46.070;14.492;2024-03-22T11:32:09;22.20;56.10
64718;DHT22;62506;46.070;14.492;2024-03-22T11:34:36;22.20;56.10
64718;DHT22;62506;46.070;14.492;2024-03-22T11:37:02;22.20;56.10
64718;DHT22;62506;46.070;14.492;2024-03-22T11:39:27;22.20;56.00
64718;DHT22;62506;46.070;14.492;2024-03-22T11:41:53;22.20;56.10
64718;DHT22;62506;46.070;14.492;2024-03-22T11:44:19;22.20;56.20
64718;DHT22;62506;46.070;14.492;2024-03-22T11:46:44;22.20;56.20
64718;DHT22;62506;46.070;14.492;2024-03-22T11:49:10;22.20;56.10
64718;DHT22;62506;46.070;14.492;2024-03-22T11:51:36;22.20;56.10
64718;DHT22;62506;46.070;14.492;2024-03-22T11:54:02;22.20;56.10
64718;DHT22;62506;46.070;14.492;2024-03-22T11:56:28;22.20;56.10
64718;DHT22;62506;46.070;14.492;2024-03-22T11:58:57;22.20;56.10
64718;DHT22;62506;46.070;14.492;2024-03-22T12:01:23;22.20;56.20
64718;DHT22;62506;46.070;14.492;2024-03-22T12:03:49;22.20;56.20
64718;DHT22;62506;46.070;14.492;2024-03-22T12:06:17;22.20;56.20
64718;DHT22;62506;46.070;14.492;2024-03-22T12:08:43;22.20;56.10
64718;DHT22;62506;46.070;14.492;2024-03-22T12:11:08;22.20;56.10
64718;DHT22;62506;46.070;14.492;2024-03-22T12:13:34;22.20;56.20
64718;DHT22;62506;46.070;14.492;2024-03-22T12:16:00;22.20;56.80
64718;DHT22;62506;46.070;14.492;2024-03-22T12:18:27;22.20;56.10
64718;DHT22;62506;46.070;14.492;2024-03-22T12:20:52;22.20;56.20
64718;DHT22;62506;46.070;14.492;2024-03-22T12:23:18;22.20;56.20
64718;DHT22;62506;46.070;14.492;2024-03-22T12:25:43;22.20;56.20
64718;DHT22;62506;46.070;14.492;2024-03-22T12:28:09;22.20;56.20
64718;DHT22;62506;46.070;14.492;2024-03-22T12:30:34;22.20;56.20
64718;DHT22;62506;46.070;14.492;2024-03-22T12:33:00;22.20;56.40
64718;DHT22;62506;46.070;14.492;2024-03-22T12:35:26;22.20;56.30
64718;DHT22;62506;46.070;14.492;2024-03-22T12:37:52;22.20;56.50
64718;DHT22;62506;46.070;14.492;2024-03-22T12:40:17;22.20;56.50
64718;DHT22;62506;46.070;14.492;2024-03-22T12:42:43;22.20;56.40
64718;DHT22;62506;46.070;14.492;2024-03-22T12:45:08;22.20;56.50
64718;DHT22;62506;46.070;14.492;2024-03-22T12:47:34;22.20;56.40
64718;DHT22;62506;46.070;14.492;2024-03-22T12:50:00;22.20;56.40
64718;DHT22;62506;46.070;14.492;2024-03-22T12:52:25;22.20;56.40
64718;DHT22;62506;46.070;14.492;2024-03-22T12:54:51;22.20;56.30
64718;DHT22;62506;46.070;14.492;2024-03-22T12:57:16;22.20;56.40
64718;DHT22;62506;46.070;14.492;2024-03-22T12:59:42;22.20;56.40
64718;DHT22;62506;46.070;14.492;2024-03-22T13:02:07;22.20;56.40
64718;DHT22;62506;46.070;14.492;2024-03-22T13:04:33;22.20;56.40
64718;DHT22;62506;46.070;14.492;2024-03-22T13:06:58;22.20;56.40
64718;DHT22;62506;46.070;14.492;2024-03-22T13:09:24;22.20;56.40
64718;DHT22;62506;46.070;14.492;2024-03-22T13:11:49;22.20;56.40
64718;DHT22;62506;46.070;14.492;2024-03-22T13:14:15;22.20;56.40
64718;DHT22;62506;46.070;14.492;2024-03-22T13:16:41;22.20;56.40
64718;DHT22;62506;46.070;14.492;2024-03-22T13:19:06;22.20;56.40
64718;DHT22;62506;46.070;14.492;2024-03-22T13:21:34;22.20;56.30
64718;DHT22;62506;46.070;14.492;2024-03-22T13:23:59;22.20;56.40
64718;DHT22;62506;46.070;14.492;2024-03-22T13:26:25;22.20;56.50
64718;DHT22;62506;46.070;14.492;2024-03-22T13:28:51;22.20;56.50
64718;DHT22;62506;46.070;14.492;2024-03-22T13:31:17;22.20;56.50
64718;DHT22;62506;46.070;14.492;2024-03-22T13:33:42;22.20;56.50
64718;DHT22;62506;46.070;14.492;2024-03-22T13:36:08;22.20;56.50
64718;DHT22;62506;46.070;14.492;2024-03-22T13:38:33;22.20;56.50
64718;DHT22;62506;46.070;14.492;2024-03-22T13:40:59;22.20;56.50
64718;DHT22;62506;46.070;14.492;2024-03-22T13:43:28;22.20;56.50
64718;DHT22;62506;46.070;14.492;2024-03-22T13:45:54;22.20;56.50
64718;DHT22;62506;46.070;14.492;2024-03-22T13:48:20;22.20;56.40
64718;DHT22;62506;46.070;14.492;2024-03-22T13:50:49;22.20;56.60
64718;DHT22;62506;46.070;14.492;2024-03-22T13:53:15;22.20;56.50
64718;DHT22;62506;46.070;14.492;2024-03-22T13:55:42;22.20;56.50
64718;DHT22;62506;46.070;14.492;2024-03-22T13:58:07;22.20;56.60
64718;DHT22;62506;46.070;14.492;2024-03-22T14:00:33;22.20;56.60
64718;DHT22;62506;46.070;14.492;2024-03-22T14:02:58;22.20;57.30
64718;DHT22;62506;46.070;14.492;2024-03-22T14:05:24;22.20;56.50
64718;DHT22;62506;46.070;14.492;2024-03-22T14:07:50;22.20;56.60
64718;DHT22;62506;46.070;14.492;2024-03-22T14:10:16;22.20;56.70
64718;DHT22;62506;46.070;14.492;2024-03-22T14:12:42;22.20;56.60
64718;DHT22;62506;46.070;14.492;2024-03-22T14:15:07;22.20;56.50
64718;DHT22;62506;46.070;14.492;2024-03-22T14:17:33;22.20;56.60
64718;DHT22;62506;46.070;14.492;2024-03-22T14:19:59;22.20;56.60
64718;DHT22;62506;46.070;14.492;2024-03-22T14:22:25;22.20;56.60
64718;DHT22;62506;46.070;14.492;2024-03-22T14:24:50;22.20;56.60
64718;DHT22;62506;46.070;14.492;2024-03-22T14:27:16;22.30;56.70
64718;DHT22;62506;46.070;14.492;2024-03-22T14:29:41;22.20;56.60
64718;DHT22;62506;46.070;14.492;2024-03-22T14:32:07;22.20;56.50
64718;DHT22;62506;46.070;14.492;2024-03-22T14:34:32;22.20;56.60
64718;DHT22;62506;46.070;14.492;2024-03-22T14:36:58;22.20;56.60
64718;DHT22;62506;46.070;14.492;2024-03-22T14:39:23;22.30;56.70
64718;DHT22;62506;46.070;14.492;2024-03-22T14:41:49;22.30;57.50
64718;DHT22;62506;46.070;14.492;2024-03-22T14:44:14;22.20;56.70
64718;DHT22;62506;46.070;14.492;2024-03-22T14:46:40;22.20;56.70
64718;DHT22;62506;46.070;14.492;2024-03-22T14:49:06;22.20;56.70
64718;DHT22;62506;46.070;14.492;2024-03-22T14:51:31;22.20;56.70
64718;DHT22;62506;46.070;14.492;2024-03-22T14:53:57;22.20;56.70
64718;DHT22;62506;46.070;14.492;2024-03-22T14:56:22;22.20;56.80
64718;DHT22;62506;46.070;14.492;2024-03-22T14:58:48;22.20;56.90
64718;DHT22;62506;46.070;14.492;2024-03-22T15:01:13;22.20;57.00
64718;DHT22;62506;46.070;14.492;2024-03-22T15:03:39;22.30;57.10
64718;DHT22;62506;46.070;14.492;2024-03-22T15:06:04;22.30;57.00